sensor_id;sensor_type;location;lat;lon;timestamp;P1;durP1;ratioP1;P2;durP2;ratioP2
60241;SDS011;46103;52.076;113.488;2024-03-02T00:00:41;8.43;;;3.17;;
60241;SDS011;46103;52.076;113.488;2024-03-02T00:03:45;8.00;;;2.92;;
60241;SDS011;46103;52.076;113.488;2024-03-02T00:06:50;6.65;;;2.72;;
60241;SDS011;46103;52.076;113.488;2024-03-02T00:09:56;7.25;;;2.67;;
60241;SDS011;46103;52.076;113.488;2024-03-02T00:13:00;5.85;;;2.67;;
60241;SDS011;46103;52.076;113.488;2024-03-02T00:16:04;7.85;;;2.88;;
60241;SDS011;46103;52.076;113.488;2024-03-02T00:22:12;7.03;;;2.92;;
60241;SDS011;46103;52.076;113.488;2024-03-02T00:25:16;6.70;;;3.03;;
60241;SDS011;46103;52.076;113.488;2024-03-02T00:28:24;10.10;;;3.28;;
60241;SDS011;46103;52.076;113.488;2024-03-02T00:31:29;8.05;;;2.92;;
60241;SDS011;46103;52.076;113.488;2024-03-02T00:34:33;12.05;;;3.88;;
60241;SDS011;46103;52.076;113.488;2024-03-02T00:37:37;8.90;;;3.55;;
60241;SDS011;46103;52.076;113.488;2024-03-02T00:40:42;9.65;;;4.28;;
60241;SDS011;46103;52.076;113.488;2024-03-02T00:43:59;11.43;;;3.75;;
60241;SDS011;46103;52.076;113.488;2024-03-02T00:47:04;11.45;;;3.78;;
60241;SDS011;46103;52.076;113.488;2024-03-02T00:50:08;8.40;;;3.10;;
60241;SDS011;46103;52.076;113.488;2024-03-02T00:53:25;8.63;;;3.38;;
60241;SDS011;46103;52.076;113.488;2024-03-02T00:56:30;13.52;;;5.20;;
60241;SDS011;46103;52.076;113.488;2024-03-02T00:59:34;14.57;;;5.95;;
60241;SDS011;46103;52.076;113.488;2024-03-02T01:02:38;19.30;;;7.80;;
60241;SDS011;46103;52.076;113.488;2024-03-02T01:05:42;32.85;;;12.25;;
60241;SDS011;46103;52.076;113.488;2024-03-02T01:08:46;25.45;;;10.43;;
60241;SDS011;46103;52.076;113.488;2024-03-02T01:11:55;25.75;;;12.18;;
60241;SDS011;46103;52.076;113.488;2024-03-02T01:15:02;28.75;;;12.32;;
60241;SDS011;46103;52.076;113.488;2024-03-02T01:18:09;20.75;;;9.43;;
60241;SDS011;46103;52.076;113.488;2024-03-02T01:21:12;32.28;;;14.60;;
60241;SDS011;46103;52.076;113.488;2024-03-02T01:24:17;32.83;;;14.75;;
60241;SDS011;46103;52.076;113.488;2024-03-02T01:27:20;23.55;;;11.07;;
60241;SDS011;46103;52.076;113.488;2024-03-02T01:30:25;22.77;;;11.93;;
60241;SDS011;46103;52.076;113.488;2024-03-02T01:33:28;26.25;;;10.65;;
60241;SDS011;46103;52.076;113.488;2024-03-02T01:36:33;28.20;;;13.07;;
60241;SDS011;46103;52.076;113.488;2024-03-02T01:39:36;30.75;;;12.77;;
60241;SDS011;46103;52.076;113.488;2024-03-02T01:42:40;31.75;;;13.70;;
60241;SDS011;46103;52.076;113.488;2024-03-02T01:45:44;33.08;;;14.05;;
60241;SDS011;46103;52.076;113.488;2024-03-02T01:48:48;26.33;;;12.02;;
60241;SDS011;46103;52.076;113.488;2024-03-02T01:51:52;27.52;;;12.77;;
60241;SDS011;46103;52.076;113.488;2024-03-02T01:54:56;34.58;;;15.93;;
60241;SDS011;46103;52.076;113.488;2024-03-02T01:58:00;38.97;;;18.40;;
60241;SDS011;46103;52.076;113.488;2024-03-02T02:01:04;36.75;;;15.80;;
60241;SDS011;46103;52.076;113.488;2024-03-02T02:04:08;21.55;;;9.30;;
60241;SDS011;46103;52.076;113.488;2024-03-02T02:07:12;27.02;;;11.90;;
60241;SDS011;46103;52.076;113.488;2024-03-02T02:10:17;33.40;;;12.88;;
60241;SDS011;46103;52.076;113.488;2024-03-02T02:13:21;32.15;;;14.05;;
60241;SDS011;46103;52.076;113.488;2024-03-02T02:16:24;34.97;;;14.52;;
60241;SDS011;46103;52.076;113.488;2024-03-02T02:19:28;25.33;;;12.48;;
60241;SDS011;46103;52.076;113.488;2024-03-02T02:22:32;22.45;;;9.05;;
60241;SDS011;46103;52.076;113.488;2024-03-02T02:25:36;18.95;;;7.72;;
60241;SDS011;46103;52.076;113.488;2024-03-02T02:28:39;15.00;;;6.03;;
60241;SDS011;46103;52.076;113.488;2024-03-02T02:31:50;20.38;;;8.75;;
60241;SDS011;46103;52.076;113.488;2024-03-02T02:34:53;18.77;;;8.07;;
60241;SDS011;46103;52.076;113.488;2024-03-02T02:37:57;18.45;;;8.13;;
60241;SDS011;46103;52.076;113.488;2024-03-02T02:41:01;16.83;;;7.82;;
60241;SDS011;46103;52.076;113.488;2024-03-02T02:44:05;17.50;;;6.03;;
60241;SDS011;46103;52.076;113.488;2024-03-02T02:47:08;15.88;;;7.43;;
60241;SDS011;46103;52.076;113.488;2024-03-02T02:50:12;15.95;;;6.82;;
60241;SDS011;46103;52.076;113.488;2024-03-02T02:53:16;13.98;;;5.70;;
60241;SDS011;46103;52.076;113.488;2024-03-02T02:56:20;13.35;;;4.88;;
60241;SDS011;46103;52.076;113.488;2024-03-02T02:59:24;12.63;;;4.82;;
60241;SDS011;46103;52.076;113.488;2024-03-02T03:02:28;11.30;;;5.18;;
60241;SDS011;46103;52.076;113.488;2024-03-02T03:05:31;13.63;;;5.50;;
60241;SDS011;46103;52.076;113.488;2024-03-02T03:08:34;16.60;;;5.13;;
60241;SDS011;46103;52.076;113.488;2024-03-02T03:11:38;6.80;;;3.35;;
60241;SDS011;46103;52.076;113.488;2024-03-02T03:14:42;9.32;;;2.47;;
60241;SDS011;46103;52.076;113.488;2024-03-02T03:17:46;7.97;;;2.40;;
60241;SDS011;46103;52.076;113.488;2024-03-02T03:20:50;7.72;;;2.83;;
60241;SDS011;46103;52.076;113.488;2024-03-02T03:23:59;10.77;;;3.83;;
60241;SDS011;46103;52.076;113.488;2024-03-02T03:27:04;4.32;;;2.63;;
60241;SDS011;46103;52.076;113.488;2024-03-02T03:30:07;6.60;;;2.50;;
60241;SDS011;46103;52.076;113.488;2024-03-02T03:33:12;5.70;;;1.83;;
60241;SDS011;46103;52.076;113.488;2024-03-02T03:36:17;7.30;;;2.33;;
60241;SDS011;46103;52.076;113.488;2024-03-02T03:39:20;5.30;;;1.95;;
60241;SDS011;46103;52.076;113.488;2024-03-02T03:42:23;6.75;;;2.67;;
60241;SDS011;46103;52.076;113.488;2024-03-02T03:50:34;6.05;;;2.53;;
60241;SDS011;46103;52.076;113.488;2024-03-02T03:53:37;10.63;;;3.03;;
60241;SDS011;46103;52.076;113.488;2024-03-02T03:56:41;6.13;;;2.65;;
60241;SDS011;46103;52.076;113.488;2024-03-02T03:59:45;5.50;;;2.30;;
60241;SDS011;46103;52.076;113.488;2024-03-02T04:02:49;5.55;;;1.73;;
60241;SDS011;46103;52.076;113.488;2024-03-02T04:05:53;6.97;;;2.35;;
60241;SDS011;46103;52.076;113.488;2024-03-02T04:08:57;4.07;;;1.83;;
60241;SDS011;46103;52.076;113.488;2024-03-02T04:12:01;8.23;;;3.50;;
60241;SDS011;46103;52.076;113.488;2024-03-02T04:19:45;7.95;;;3.30;;
60241;SDS011;46103;52.076;113.488;2024-03-02T04:24:21;7.68;;;3.63;;
60241;SDS011;46103;52.076;113.488;2024-03-02T04:27:24;10.23;;;3.00;;
60241;SDS011;46103;52.076;113.488;2024-03-02T04:30:27;8.95;;;2.70;;
60241;SDS011;46103;52.076;113.488;2024-03-02T04:33:32;4.13;;;2.28;;
60241;SDS011;46103;52.076;113.488;2024-03-02T04:36:35;8.43;;;3.05;;
60241;SDS011;46103;52.076;113.488;2024-03-02T04:39:39;6.30;;;2.33;;
60241;SDS011;46103;52.076;113.488;2024-03-02T04:42:43;9.40;;;2.97;;
60241;SDS011;46103;52.076;113.488;2024-03-02T04:45:46;9.93;;;4.72;;
60241;SDS011;46103;52.076;113.488;2024-03-02T04:48:50;7.57;;;2.78;;
60241;SDS011;46103;52.076;113.488;2024-03-02T04:51:59;8.30;;;2.38;;
60241;SDS011;46103;52.076;113.488;2024-03-02T04:55:03;4.47;;;1.75;;
60241;SDS011;46103;52.076;113.488;2024-03-02T04:58:33;7.15;;;1.88;;
60241;SDS011;46103;52.076;113.488;2024-03-02T05:01:37;6.82;;;2.45;;
60241;SDS011;46103;52.076;113.488;2024-03-02T05:04:40;5.18;;;2.33;;
60241;SDS011;46103;52.076;113.488;2024-03-02T05:07:44;6.15;;;2.95;;
60241;SDS011;46103;52.076;113.488;2024-03-02T05:10:49;4.03;;;1.80;;
60241;SDS011;46103;52.076;113.488;2024-03-02T05:13:53;5.40;;;2.00;;
60241;SDS011;46103;52.076;113.488;2024-03-02T05:16:57;4.70;;;2.08;;
60241;SDS011;46103;52.076;113.488;2024-03-02T05:20:01;6.45;;;2.20;;
60241;SDS011;46103;52.076;113.488;2024-03-02T05:23:05;6.45;;;2.47;;
60241;SDS011;46103;52.076;113.488;2024-03-02T05:26:09;5.20;;;2.25;;
60241;SDS011;46103;52.076;113.488;2024-03-02T05:29:16;6.07;;;1.98;;
60241;SDS011;46103;52.076;113.488;2024-03-02T05:32:20;5.20;;;2.40;;
60241;SDS011;46103;52.076;113.488;2024-03-02T05:35:24;8.82;;;2.40;;
60241;SDS011;46103;52.076;113.488;2024-03-02T05:38:27;9.18;;;3.58;;
60241;SDS011;46103;52.076;113.488;2024-03-02T05:41:32;11.23;;;2.03;;
60241;SDS011;46103;52.076;113.488;2024-03-02T05:44:35;7.28;;;2.20;;
60241;SDS011;46103;52.076;113.488;2024-03-02T05:47:40;7.03;;;2.17;;
60241;SDS011;46103;52.076;113.488;2024-03-02T05:50:43;6.10;;;2.45;;
60241;SDS011;46103;52.076;113.488;2024-03-02T05:53:48;4.47;;;2.03;;
60241;SDS011;46103;52.076;113.488;2024-03-02T05:56:51;6.43;;;2.53;;
60241;SDS011;46103;52.076;113.488;2024-03-02T05:59:56;9.77;;;2.88;;
60241;SDS011;46103;52.076;113.488;2024-03-02T06:02:59;4.82;;;1.63;;
60241;SDS011;46103;52.076;113.488;2024-03-02T06:06:03;4.60;;;1.92;;
60241;SDS011;46103;52.076;113.488;2024-03-02T06:09:08;9.65;;;2.30;;
60241;SDS011;46103;52.076;113.488;2024-03-02T06:12:18;7.03;;;2.55;;
60241;SDS011;46103;52.076;113.488;2024-03-02T06:15:22;4.63;;;2.35;;
60241;SDS011;46103;52.076;113.488;2024-03-02T06:18:26;5.32;;;2.30;;
60241;SDS011;46103;52.076;113.488;2024-03-02T06:21:30;6.97;;;2.20;;
60241;SDS011;46103;52.076;113.488;2024-03-02T06:24:38;6.93;;;2.72;;
60241;SDS011;46103;52.076;113.488;2024-03-02T06:27:53;3.60;;;1.55;;
60241;SDS011;46103;52.076;113.488;2024-03-02T06:31:11;8.43;;;2.25;;
60241;SDS011;46103;52.076;113.488;2024-03-02T06:34:14;4.68;;;2.35;;
60241;SDS011;46103;52.076;113.488;2024-03-02T06:37:19;5.07;;;2.25;;
60241;SDS011;46103;52.076;113.488;2024-03-02T06:40:22;6.75;;;3.00;;
60241;SDS011;46103;52.076;113.488;2024-03-02T06:43:30;6.40;;;2.28;;
60241;SDS011;46103;52.076;113.488;2024-03-02T06:46:33;5.07;;;2.05;;
60241;SDS011;46103;52.076;113.488;2024-03-02T06:49:41;6.32;;;2.38;;
60241;SDS011;46103;52.076;113.488;2024-03-02T06:52:47;8.00;;;3.78;;
60241;SDS011;46103;52.076;113.488;2024-03-02T06:56:00;6.05;;;2.67;;
60241;SDS011;46103;52.076;113.488;2024-03-02T06:59:08;7.25;;;2.85;;
60241;SDS011;46103;52.076;113.488;2024-03-02T07:02:24;4.53;;;2.05;;
60241;SDS011;46103;52.076;113.488;2024-03-02T07:05:49;7.57;;;2.40;;
60241;SDS011;46103;52.076;113.488;2024-03-02T07:09:00;5.70;;;2.35;;
60241;SDS011;46103;52.076;113.488;2024-03-02T07:12:33;9.52;;;2.85;;
60241;SDS011;46103;52.076;113.488;2024-03-02T07:15:39;5.32;;;1.70;;
60241;SDS011;46103;52.076;113.488;2024-03-02T07:19:09;4.90;;;1.88;;
60241;SDS011;46103;52.076;113.488;2024-03-02T07:22:34;6.47;;;2.53;;
60241;SDS011;46103;52.076;113.488;2024-03-02T07:26:30;5.65;;;2.45;;
60241;SDS011;46103;52.076;113.488;2024-03-02T07:30:02;5.55;;;2.83;;
60241;SDS011;46103;52.076;113.488;2024-03-02T07:33:22;5.45;;;2.78;;
60241;SDS011;46103;52.076;113.488;2024-03-02T07:36:30;7.45;;;3.08;;
60241;SDS011;46103;52.076;113.488;2024-03-02T07:43:53;6.88;;;2.13;;
60241;SDS011;46103;52.076;113.488;2024-03-02T07:47:55;6.10;;;1.85;;
60241;SDS011;46103;52.076;113.488;2024-03-02T07:52:08;10.23;;;2.92;;
60241;SDS011;46103;52.076;113.488;2024-03-02T07:55:31;5.47;;;2.25;;
60241;SDS011;46103;52.076;113.488;2024-03-02T07:58:39;6.45;;;1.77;;
60241;SDS011;46103;52.076;113.488;2024-03-02T08:01:46;8.32;;;2.78;;
60241;SDS011;46103;52.076;113.488;2024-03-02T08:05:10;5.22;;;2.58;;
60241;SDS011;46103;52.076;113.488;2024-03-02T08:08:19;7.07;;;3.03;;
60241;SDS011;46103;52.076;113.488;2024-03-02T08:11:33;11.15;;;4.18;;
60241;SDS011;46103;52.076;113.488;2024-03-02T08:14:45;8.65;;;4.18;;
60241;SDS011;46103;52.076;113.488;2024-03-02T08:17:55;6.90;;;3.30;;
60241;SDS011;46103;52.076;113.488;2024-03-02T08:20:59;6.88;;;2.60;;
60241;SDS011;46103;52.076;113.488;2024-03-02T08:24:19;7.93;;;3.33;;
60241;SDS011;46103;52.076;113.488;2024-03-02T08:27:23;4.38;;;2.22;;
60241;SDS011;46103;52.076;113.488;2024-03-02T08:30:27;5.47;;;2.15;;
60241;SDS011;46103;52.076;113.488;2024-03-02T08:33:31;8.23;;;3.28;;
60241;SDS011;46103;52.076;113.488;2024-03-02T08:36:35;8.45;;;2.75;;
60241;SDS011;46103;52.076;113.488;2024-03-02T08:39:42;8.13;;;2.45;;
60241;SDS011;46103;52.076;113.488;2024-03-02T08:42:48;9.63;;;3.97;;
60241;SDS011;46103;52.076;113.488;2024-03-02T08:45:51;9.38;;;3.22;;
60241;SDS011;46103;52.076;113.488;2024-03-02T08:48:55;10.65;;;3.33;;
60241;SDS011;46103;52.076;113.488;2024-03-02T08:52:00;12.20;;;5.75;;
60241;SDS011;46103;52.076;113.488;2024-03-02T08:55:04;13.02;;;5.63;;
60241;SDS011;46103;52.076;113.488;2024-03-02T08:58:09;13.75;;;4.10;;
60241;SDS011;46103;52.076;113.488;2024-03-02T09:01:12;17.38;;;7.07;;
60241;SDS011;46103;52.076;113.488;2024-03-02T09:04:15;10.32;;;4.07;;
60241;SDS011;46103;52.076;113.488;2024-03-02T09:07:19;15.70;;;6.60;;
60241;SDS011;46103;52.076;113.488;2024-03-02T09:10:23;8.77;;;4.47;;
60241;SDS011;46103;52.076;113.488;2024-03-02T09:13:29;10.32;;;4.72;;
60241;SDS011;46103;52.076;113.488;2024-03-02T09:16:32;9.57;;;4.28;;
60241;SDS011;46103;52.076;113.488;2024-03-02T09:19:35;10.43;;;5.20;;
60241;SDS011;46103;52.076;113.488;2024-03-02T09:22:38;15.93;;;6.25;;
60241;SDS011;46103;52.076;113.488;2024-03-02T09:25:41;13.05;;;5.43;;
60241;SDS011;46103;52.076;113.488;2024-03-02T09:28:44;11.88;;;5.00;;
60241;SDS011;46103;52.076;113.488;2024-03-02T09:31:47;12.88;;;6.53;;
60241;SDS011;46103;52.076;113.488;2024-03-02T09:34:52;10.35;;;5.43;;
60241;SDS011;46103;52.076;113.488;2024-03-02T09:37:55;11.45;;;5.57;;
60241;SDS011;46103;52.076;113.488;2024-03-02T09:41:00;23.48;;;9.10;;
60241;SDS011;46103;52.076;113.488;2024-03-02T09:44:05;23.30;;;9.40;;
60241;SDS011;46103;52.076;113.488;2024-03-02T09:47:11;23.17;;;11.10;;
60241;SDS011;46103;52.076;113.488;2024-03-02T09:50:20;27.38;;;11.43;;
60241;SDS011;46103;52.076;113.488;2024-03-02T09:53:44;24.60;;;10.63;;
60241;SDS011;46103;52.076;113.488;2024-03-02T09:56:56;24.52;;;11.93;;
60241;SDS011;46103;52.076;113.488;2024-03-02T10:00:06;22.38;;;10.05;;
60241;SDS011;46103;52.076;113.488;2024-03-02T10:03:22;21.77;;;9.07;;
60241;SDS011;46103;52.076;113.488;2024-03-02T10:10:13;25.67;;;13.05;;
60241;SDS011;46103;52.076;113.488;2024-03-02T10:13:33;30.15;;;13.18;;
60241;SDS011;46103;52.076;113.488;2024-03-02T10:16:42;19.90;;;10.77;;
60241;SDS011;46103;52.076;113.488;2024-03-02T10:19:47;19.38;;;7.97;;
60241;SDS011;46103;52.076;113.488;2024-03-02T10:22:50;17.10;;;7.97;;
60241;SDS011;46103;52.076;113.488;2024-03-02T10:25:54;21.38;;;9.50;;
60241;SDS011;46103;52.076;113.488;2024-03-02T10:28:59;21.90;;;10.40;;
60241;SDS011;46103;52.076;113.488;2024-03-02T10:32:04;12.25;;;5.13;;
60241;SDS011;46103;52.076;113.488;2024-03-02T10:35:09;20.27;;;8.88;;
60241;SDS011;46103;52.076;113.488;2024-03-02T10:38:13;27.52;;;8.23;;
60241;SDS011;46103;52.076;113.488;2024-03-02T10:41:33;10.63;;;5.45;;
60241;SDS011;46103;52.076;113.488;2024-03-02T10:44:46;15.13;;;6.57;;
60241;SDS011;46103;52.076;113.488;2024-03-02T10:47:54;17.42;;;7.22;;
60241;SDS011;46103;52.076;113.488;2024-03-02T10:50:59;20.90;;;9.55;;
60241;SDS011;46103;52.076;113.488;2024-03-02T10:54:06;18.88;;;9.02;;
60241;SDS011;46103;52.076;113.488;2024-03-02T10:57:09;26.13;;;10.65;;
60241;SDS011;46103;52.076;113.488;2024-03-02T11:00:14;15.38;;;6.57;;
60241;SDS011;46103;52.076;113.488;2024-03-02T11:03:18;22.90;;;10.02;;
60241;SDS011;46103;52.076;113.488;2024-03-02T11:06:23;17.45;;;9.80;;
60241;SDS011;46103;52.076;113.488;2024-03-02T11:09:29;26.60;;;12.15;;
60241;SDS011;46103;52.076;113.488;2024-03-02T11:12:48;25.23;;;11.70;;
60241;SDS011;46103;52.076;113.488;2024-03-02T11:16:05;23.10;;;10.55;;
60241;SDS011;46103;52.076;113.488;2024-03-02T11:22:20;24.83;;;9.73;;
60241;SDS011;46103;52.076;113.488;2024-03-02T11:25:28;20.63;;;9.02;;
60241;SDS011;46103;52.076;113.488;2024-03-02T11:28:35;21.70;;;8.63;;
60241;SDS011;46103;52.076;113.488;2024-03-02T11:31:59;27.30;;;9.63;;
60241;SDS011;46103;52.076;113.488;2024-03-02T11:35:42;21.25;;;8.98;;
60241;SDS011;46103;52.076;113.488;2024-03-02T11:38:51;22.70;;;9.18;;
60241;SDS011;46103;52.076;113.488;2024-03-02T11:42:10;21.90;;;7.25;;
60241;SDS011;46103;52.076;113.488;2024-03-02T11:45:29;26.42;;;10.38;;
60241;SDS011;46103;52.076;113.488;2024-03-02T11:48:37;19.45;;;8.63;;
60241;SDS011;46103;52.076;113.488;2024-03-02T11:51:50;21.13;;;8.32;;
60241;SDS011;46103;52.076;113.488;2024-03-02T11:55:06;27.00;;;9.25;;
60241;SDS011;46103;52.076;113.488;2024-03-02T12:09:16;19.73;;;7.97;;
60241;SDS011;46103;52.076;113.488;2024-03-02T12:12:20;26.60;;;10.43;;
60241;SDS011;46103;52.076;113.488;2024-03-02T12:15:29;22.92;;;9.07;;
60241;SDS011;46103;52.076;113.488;2024-03-02T12:18:34;28.75;;;9.85;;
60241;SDS011;46103;52.076;113.488;2024-03-02T12:21:39;27.48;;;11.23;;
60241;SDS011;46103;52.076;113.488;2024-03-02T12:24:44;32.80;;;13.65;;
60241;SDS011;46103;52.076;113.488;2024-03-02T12:27:54;36.53;;;14.48;;
60241;SDS011;46103;52.076;113.488;2024-03-02T12:30:59;34.15;;;14.23;;
60241;SDS011;46103;52.076;113.488;2024-03-02T12:34:03;33.47;;;15.10;;
60241;SDS011;46103;52.076;113.488;2024-03-02T12:37:07;38.10;;;16.83;;
60241;SDS011;46103;52.076;113.488;2024-03-02T12:40:11;36.67;;;15.20;;
60241;SDS011;46103;52.076;113.488;2024-03-02T12:43:15;33.35;;;16.23;;
60241;SDS011;46103;52.076;113.488;2024-03-02T12:46:20;33.90;;;14.95;;
60241;SDS011;46103;52.076;113.488;2024-03-02T12:49:24;16.55;;;7.65;;
60241;SDS011;46103;52.076;113.488;2024-03-02T12:52:28;30.45;;;13.82;;
60241;SDS011;46103;52.076;113.488;2024-03-02T12:55:32;35.63;;;12.95;;
60241;SDS011;46103;52.076;113.488;2024-03-02T12:58:42;35.75;;;15.13;;
60241;SDS011;46103;52.076;113.488;2024-03-02T13:01:52;24.40;;;12.27;;
60241;SDS011;46103;52.076;113.488;2024-03-02T13:05:00;30.80;;;12.25;;
60241;SDS011;46103;52.076;113.488;2024-03-02T13:08:04;41.72;;;15.38;;
60241;SDS011;46103;52.076;113.488;2024-03-02T13:11:10;34.55;;;13.60;;
60241;SDS011;46103;52.076;113.488;2024-03-02T13:14:15;27.42;;;13.10;;
60241;SDS011;46103;52.076;113.488;2024-03-02T13:17:19;25.08;;;12.38;;
60241;SDS011;46103;52.076;113.488;2024-03-02T13:20:24;37.85;;;14.20;;
60241;SDS011;46103;52.076;113.488;2024-03-02T13:24:37;25.15;;;13.38;;
60241;SDS011;46103;52.076;113.488;2024-03-02T13:28:48;27.30;;;14.25;;
60241;SDS011;46103;52.076;113.488;2024-03-02T13:36:57;31.05;;;14.98;;
60241;SDS011;46103;52.076;113.488;2024-03-02T13:40:00;26.67;;;12.77;;
60241;SDS011;46103;52.076;113.488;2024-03-02T13:43:05;37.20;;;13.23;;
60241;SDS011;46103;52.076;113.488;2024-03-02T13:49:13;27.15;;;12.30;;
60241;SDS011;46103;52.076;113.488;2024-03-02T13:52:17;21.30;;;9.40;;
60241;SDS011;46103;52.076;113.488;2024-03-02T13:58:43;14.98;;;6.28;;
60241;SDS011;46103;52.076;113.488;2024-03-02T14:01:49;21.27;;;8.65;;
60241;SDS011;46103;52.076;113.488;2024-03-02T14:04:53;17.85;;;8.95;;
60241;SDS011;46103;52.076;113.488;2024-03-02T14:07:57;28.63;;;11.98;;
60241;SDS011;46103;52.076;113.488;2024-03-02T14:35:40;26.60;;;10.95;;
60241;SDS011;46103;52.076;113.488;2024-03-02T14:38:44;20.73;;;8.73;;
60241;SDS011;46103;52.076;113.488;2024-03-02T14:42:03;28.65;;;10.88;;
60241;SDS011;46103;52.076;113.488;2024-03-02T15:07:11;28.35;;;10.75;;
60241;SDS011;46103;52.076;113.488;2024-03-02T15:10:15;32.42;;;11.95;;
60241;SDS011;46103;52.076;113.488;2024-03-02T15:13:21;32.03;;;11.77;;
60241;SDS011;46103;52.076;113.488;2024-03-02T15:16:25;25.80;;;10.48;;
60241;SDS011;46103;52.076;113.488;2024-03-02T15:19:31;28.58;;;11.65;;
60241;SDS011;46103;52.076;113.488;2024-03-02T15:25:39;22.90;;;9.90;;
60241;SDS011;46103;52.076;113.488;2024-03-02T15:28:42;23.48;;;10.90;;
60241;SDS011;46103;52.076;113.488;2024-03-02T15:31:47;23.88;;;9.85;;
60241;SDS011;46103;52.076;113.488;2024-03-02T15:34:56;21.92;;;8.38;;
60241;SDS011;46103;52.076;113.488;2024-03-02T15:38:04;21.38;;;9.48;;
60241;SDS011;46103;52.076;113.488;2024-03-02T15:41:32;16.98;;;8.80;;
60241;SDS011;46103;52.076;113.488;2024-03-02T15:44:36;17.73;;;7.65;;
60241;SDS011;46103;52.076;113.488;2024-03-02T15:47:48;25.20;;;9.05;;
60241;SDS011;46103;52.076;113.488;2024-03-02T15:50:59;14.13;;;6.43;;
60241;SDS011;46103;52.076;113.488;2024-03-02T15:54:08;15.35;;;6.00;;
60241;SDS011;46103;52.076;113.488;2024-03-02T15:57:13;26.95;;;11.45;;
60241;SDS011;46103;52.076;113.488;2024-03-02T16:00:17;31.02;;;12.40;;
60241;SDS011;46103;52.076;113.488;2024-03-02T16:03:35;28.23;;;11.98;;
60241;SDS011;46103;52.076;113.488;2024-03-02T16:06:43;30.50;;;11.50;;
60241;SDS011;46103;52.076;113.488;2024-03-02T16:09:47;33.67;;;11.95;;
60241;SDS011;46103;52.076;113.488;2024-03-02T16:13:08;28.92;;;12.60;;
60241;SDS011;46103;52.076;113.488;2024-03-02T16:16:26;29.77;;;12.70;;
60241;SDS011;46103;52.076;113.488;2024-03-02T16:19:31;30.33;;;12.85;;
60241;SDS011;46103;52.076;113.488;2024-03-02T16:22:52;31.00;;;11.95;;
60241;SDS011;46103;52.076;113.488;2024-03-02T16:25:57;27.92;;;10.40;;
60241;SDS011;46103;52.076;113.488;2024-03-02T16:29:10;23.35;;;10.15;;
60241;SDS011;46103;52.076;113.488;2024-03-02T16:32:29;18.63;;;9.45;;
60241;SDS011;46103;52.076;113.488;2024-03-02T16:35:34;30.05;;;11.77;;
60241;SDS011;46103;52.076;113.488;2024-03-02T16:38:45;24.27;;;11.25;;
60241;SDS011;46103;52.076;113.488;2024-03-02T16:41:50;24.33;;;10.25;;
60241;SDS011;46103;52.076;113.488;2024-03-02T16:45:07;22.13;;;8.38;;
60241;SDS011;46103;52.076;113.488;2024-03-02T16:49:17;22.90;;;9.25;;
60241;SDS011;46103;52.076;113.488;2024-03-02T17:01:03;20.23;;;7.38;;
60241;SDS011;46103;52.076;113.488;2024-03-02T17:04:32;33.65;;;11.05;;
60241;SDS011;46103;52.076;113.488;2024-03-02T17:07:40;28.02;;;8.95;;
60241;SDS011;46103;52.076;113.488;2024-03-02T17:10:45;27.90;;;9.23;;
60241;SDS011;46103;52.076;113.488;2024-03-02T17:17:29;14.52;;;5.20;;
60241;SDS011;46103;52.076;113.488;2024-03-02T17:20:48;12.88;;;6.53;;
60241;SDS011;46103;52.076;113.488;2024-03-02T17:23:53;21.30;;;9.55;;
60241;SDS011;46103;52.076;113.488;2024-03-02T17:26:57;24.88;;;9.82;;
60241;SDS011;46103;52.076;113.488;2024-03-02T17:30:01;9.02;;;3.65;;
60241;SDS011;46103;52.076;113.488;2024-03-02T17:33:20;21.52;;;8.30;;
60241;SDS011;46103;52.076;113.488;2024-03-02T17:36:36;23.90;;;8.52;;
60241;SDS011;46103;52.076;113.488;2024-03-02T17:40:02;15.82;;;6.63;;
60241;SDS011;46103;52.076;113.488;2024-03-02T17:47:17;11.65;;;5.78;;
60241;SDS011;46103;52.076;113.488;2024-03-02T17:50:35;9.82;;;4.30;;
60241;SDS011;46103;52.076;113.488;2024-03-02T18:26:45;16.58;;;6.75;;
60241;SDS011;46103;52.076;113.488;2024-03-02T18:30:17;12.80;;;4.50;;
60241;SDS011;46103;52.076;113.488;2024-03-02T18:33:40;14.23;;;5.95;;
60241;SDS011;46103;52.076;113.488;2024-03-02T18:36:59;8.85;;;4.60;;
60241;SDS011;46103;52.076;113.488;2024-03-02T18:40:06;10.30;;;5.20;;
60241;SDS011;46103;52.076;113.488;2024-03-02T18:43:10;10.43;;;4.88;;
60241;SDS011;46103;52.076;113.488;2024-03-02T18:46:16;10.10;;;4.28;;
60241;SDS011;46103;52.076;113.488;2024-03-02T18:49:45;12.15;;;4.80;;
60241;SDS011;46103;52.076;113.488;2024-03-02T19:00:13;7.40;;;2.97;;
60241;SDS011;46103;52.076;113.488;2024-03-02T19:07:39;9.38;;;4.82;;
60241;SDS011;46103;52.076;113.488;2024-03-02T19:10:45;13.30;;;4.13;;
60241;SDS011;46103;52.076;113.488;2024-03-02T19:13:56;11.40;;;4.88;;
60241;SDS011;46103;52.076;113.488;2024-03-02T19:17:02;17.88;;;7.82;;
60241;SDS011;46103;52.076;113.488;2024-03-02T19:20:07;6.50;;;2.53;;
60241;SDS011;46103;52.076;113.488;2024-03-02T19:26:34;9.43;;;4.07;;
60241;SDS011;46103;52.076;113.488;2024-03-02T19:29:39;7.88;;;3.40;;
60241;SDS011;46103;52.076;113.488;2024-03-02T19:35:55;12.70;;;5.35;;
60241;SDS011;46103;52.076;113.488;2024-03-02T19:39:03;10.25;;;3.95;;
60241;SDS011;46103;52.076;113.488;2024-03-02T19:42:09;10.43;;;4.57;;
60241;SDS011;46103;52.076;113.488;2024-03-02T19:45:13;6.75;;;2.85;;
60241;SDS011;46103;52.076;113.488;2024-03-02T19:48:17;9.85;;;4.18;;
60241;SDS011;46103;52.076;113.488;2024-03-02T19:51:21;8.93;;;3.05;;
60241;SDS011;46103;52.076;113.488;2024-03-02T19:54:41;13.13;;;3.75;;
60241;SDS011;46103;52.076;113.488;2024-03-02T19:58:02;9.98;;;4.28;;
60241;SDS011;46103;52.076;113.488;2024-03-02T20:01:09;12.57;;;4.30;;
60241;SDS011;46103;52.076;113.488;2024-03-02T20:04:54;9.98;;;4.88;;
60241;SDS011;46103;52.076;113.488;2024-03-02T20:07:58;14.93;;;7.05;;
60241;SDS011;46103;52.076;113.488;2024-03-02T20:11:02;11.57;;;4.30;;
60241;SDS011;46103;52.076;113.488;2024-03-02T20:14:06;19.27;;;6.95;;
60241;SDS011;46103;52.076;113.488;2024-03-02T20:17:11;21.17;;;7.00;;
60241;SDS011;46103;52.076;113.488;2024-03-02T20:20:26;14.73;;;6.43;;
60241;SDS011;46103;52.076;113.488;2024-03-02T20:23:46;14.90;;;7.13;;
60241;SDS011;46103;52.076;113.488;2024-03-02T20:48:50;15.55;;;7.75;;
60241;SDS011;46103;52.076;113.488;2024-03-02T20:55:32;18.50;;;8.45;;
60241;SDS011;46103;52.076;113.488;2024-03-02T20:58:53;12.45;;;5.72;;
60241;SDS011;46103;52.076;113.488;2024-03-02T21:14:11;25.27;;;8.32;;
60241;SDS011;46103;52.076;113.488;2024-03-02T21:17:15;12.23;;;6.65;;
60241;SDS011;46103;52.076;113.488;2024-03-02T21:20:20;10.45;;;5.40;;
60241;SDS011;46103;52.076;113.488;2024-03-02T21:26:59;9.70;;;6.35;;
60241;SDS011;46103;52.076;113.488;2024-03-02T21:30:04;15.93;;;6.57;;
60241;SDS011;46103;52.076;113.488;2024-03-02T21:33:39;12.20;;;5.20;;
60241;SDS011;46103;52.076;113.488;2024-03-02T21:37:09;19.15;;;9.55;;